sensor_id;sensor_type;location;lat;lon;timestamp;pressure;altitude;pressure_sealevel;temperature;humidity
64076;BME280;50327;51.328;12.324;2022-12-29T00:02:04;52893.81;;;-144.47;69.80
64076;BME280;50327;51.328;12.324;2022-12-29T00:04:30;52907.72;;;-144.47;69.27
64076;BME280;50327;51.328;12.324;2022-12-29T00:06:55;52927.59;;;-144.47;69.42
64076;BME280;50327;51.328;12.324;2022-12-29T00:09:21;52941.50;;;-144.47;69.26
64076;BME280;50327;51.328;12.324;2022-12-29T00:11:46;52903.75;;;-144.47;68.85
64076;BME280;50327;51.328;12.324;2022-12-29T00:14:15;52933.56;;;-144.47;68.94
64076;BME280;50327;51.328;12.324;2022-12-29T00:17:10;52915.69;;;-144.47;68.45
64076;BME280;50327;51.328;12.324;2022-12-29T00:19:35;52919.66;;;-144.47;68.67
64076;BME280;50327;51.328;12.324;2022-12-29T00:22:19;52893.81;;;-144.47;68.33
64076;BME280;50327;51.328;12.324;2022-12-29T00:25:04;52899.78;;;-144.47;68.34
64076;BME280;50327;51.328;12.324;2022-12-29T00:27:48;52891.84;;;-144.47;68.30
64076;BME280;50327;51.328;12.324;2022-12-29T00:30:32;52895.81;;;-144.47;68.65
64076;BME280;50327;51.328;12.324;2022-12-29T00:33:21;52909.72;;;-144.47;68.26
64076;BME280;50327;51.328;12.324;2022-12-29T00:36:27;52887.88;;;-144.47;68.20
64076;BME280;50327;51.328;12.324;2022-12-29T00:39:00;52927.59;;;-144.47;68.14
64076;BME280;50327;51.328;12.324;2022-12-29T00:41:44;52921.63;;;-144.47;67.93
64076;BME280;50327;51.328;12.324;2022-12-29T00:44:29;52915.69;;;-144.47;67.62
64076;BME280;50327;51.328;12.324;2022-12-29T00:46:54;52939.50;;;-144.47;67.67
64076;BME280;50327;51.328;12.324;2022-12-29T00:49:20;52913.69;;;-144.47;67.75
64076;BME280;50327;51.328;12.324;2022-12-29T00:52:04;52903.75;;;-144.47;67.75
64076;BME280;50327;51.328;12.324;2022-12-29T00:54:32;52907.72;;;-144.47;67.79
64076;BME280;50327;51.328;12.324;2022-12-29T00:56:57;52897.81;;;-144.47;67.63
64076;BME280;50327;51.328;12.324;2022-12-29T00:59:23;52893.81;;;-144.47;67.51
64076;BME280;50327;51.328;12.324;2022-12-29T01:01:49;52883.91;;;-144.47;67.41
64076;BME280;50327;51.328;12.324;2022-12-29T01:04:15;52907.72;;;-144.47;67.36
64076;BME280;50327;51.328;12.324;2022-12-29T01:06:41;52901.78;;;-144.47;67.38
64076;BME280;50327;51.328;12.324;2022-12-29T01:09:07;52917.66;;;-144.47;67.62
64076;BME280;50327;51.328;12.324;2022-12-29T01:11:51;52875.94;;;-144.47;67.33
64076;BME280;50327;51.328;12.324;2022-12-29T01:14:18;52887.88;;;-144.47;67.65
64076;BME280;50327;51.328;12.324;2022-12-29T01:16:44;52899.78;;;-144.47;67.60
64076;BME280;50327;51.328;12.324;2022-12-29T01:19:10;52897.81;;;-144.47;67.74
64076;BME280;50327;51.328;12.324;2022-12-29T01:21:35;52873.97;;;-144.47;67.85
64076;BME280;50327;51.328;12.324;2022-12-29T01:24:01;52891.84;;;-144.47;67.83
64076;BME280;50327;51.328;12.324;2022-12-29T01:26:27;52907.72;;;-144.47;68.25
64076;BME280;50327;51.328;12.324;2022-12-29T01:28:52;52887.88;;;-144.47;68.35
64076;BME280;50327;51.328;12.324;2022-12-29T01:31:17;52891.84;;;-144.47;68.58
64076;BME280;50327;51.328;12.324;2022-12-29T01:33:43;52887.88;;;-144.47;69.12
64076;BME280;50327;51.328;12.324;2022-12-29T01:36:13;52883.91;;;-144.47;69.14
64076;BME280;50327;51.328;12.324;2022-12-29T01:38:40;52871.97;;;-144.47;69.61
64076;BME280;50327;51.328;12.324;2022-12-29T01:41:07;52905.75;;;-144.47;69.77
64076;BME280;50327;51.328;12.324;2022-12-29T01:46:26;52895.81;;;-144.47;70.18
64076;BME280;50327;51.328;12.324;2022-12-29T01:49:14;52885.88;;;-144.47;70.09
64076;BME280;50327;51.328;12.324;2022-12-29T01:54:14;52917.66;;;-144.47;70.34
64076;BME280;50327;51.328;12.324;2022-12-29T01:56:40;52885.88;;;-144.47;70.46
64076;BME280;50327;51.328;12.324;2022-12-29T01:59:07;52905.75;;;-144.47;70.58
64076;BME280;50327;51.328;12.324;2022-12-29T02:01:36;52887.88;;;-144.47;70.81
64076;BME280;50327;51.328;12.324;2022-12-29T02:04:01;52887.88;;;-144.47;70.86
64076;BME280;50327;51.328;12.324;2022-12-29T02:06:34;52873.97;;;-144.47;70.62
64076;BME280;50327;51.328;12.324;2022-12-29T02:09:01;52911.69;;;-144.47;70.49
64076;BME280;50327;51.328;12.324;2022-12-29T02:11:27;52903.75;;;-144.47;70.47
64076;BME280;50327;51.328;12.324;2022-12-29T02:13:53;52893.81;;;-144.47;70.51
64076;BME280;50327;51.328;12.324;2022-12-29T02:27:01;52891.84;;;-144.47;69.29
64076;BME280;50327;51.328;12.324;2022-12-29T02:34:47;52885.88;;;-144.47;69.33
64076;BME280;50327;51.328;12.324;2022-12-29T02:37:19;52858.06;;;-144.47;69.54
64076;BME280;50327;51.328;12.324;2022-12-29T02:39:50;52897.81;;;-144.47;69.57
64076;BME280;50327;51.328;12.324;2022-12-29T02:47:28;52891.84;;;-144.47;70.25
64076;BME280;50327;51.328;12.324;2022-12-29T02:49:59;52871.97;;;-144.47;70.29
64076;BME280;50327;51.328;12.324;2022-12-29T02:52:27;52864.03;;;-144.47;70.19
64076;BME280;50327;51.328;12.324;2022-12-29T02:54:55;52881.91;;;-144.47;70.41
64076;BME280;50327;51.328;12.324;2022-12-29T02:59:45;52901.78;;;-144.47;70.42
64076;BME280;50327;51.328;12.324;2022-12-29T03:07:43;52871.97;;;-144.47;70.80
64076;BME280;50327;51.328;12.324;2022-12-29T03:15:33;52889.84;;;-144.47;70.75
64076;BME280;50327;51.328;12.324;2022-12-29T03:18:21;52887.88;;;-144.47;70.77
64076;BME280;50327;51.328;12.324;2022-12-29T03:20:52;52889.84;;;-144.47;70.69
64076;BME280;50327;51.328;12.324;2022-12-29T03:23:19;52923.63;;;-144.47;70.66
64076;BME280;50327;51.328;12.324;2022-12-29T03:25:47;52887.88;;;-144.47;70.74
64076;BME280;50327;51.328;12.324;2022-12-29T03:28:14;52873.97;;;-144.47;70.74
64076;BME280;50327;51.328;12.324;2022-12-29T03:30:41;52852.13;;;-144.47;70.88
64076;BME280;50327;51.328;12.324;2022-12-29T03:33:09;52883.91;;;-144.47;70.88
64076;BME280;50327;51.328;12.324;2022-12-29T03:35:36;52889.84;;;-144.47;70.70
64076;BME280;50327;51.328;12.324;2022-12-29T03:41:00;52881.91;;;-144.47;70.52
64076;BME280;50327;51.328;12.324;2022-12-29T03:43:28;52917.66;;;-144.47;70.44
64076;BME280;50327;51.328;12.324;2022-12-29T03:45:54;52899.78;;;-144.47;70.46
64076;BME280;50327;51.328;12.324;2022-12-29T03:48:19;52909.72;;;-144.47;70.20
64076;BME280;50327;51.328;12.324;2022-12-29T03:50:44;52877.94;;;-144.47;70.34
64076;BME280;50327;51.328;12.324;2022-12-29T03:53:09;52868.00;;;-144.47;70.14
64076;BME280;50327;51.328;12.324;2022-12-29T03:55:35;52870.00;;;-144.47;70.25
64076;BME280;50327;51.328;12.324;2022-12-29T03:58:00;52903.75;;;-144.47;70.17
64076;BME280;50327;51.328;12.324;2022-12-29T04:00:25;52883.91;;;-144.47;70.44
64076;BME280;50327;51.328;12.324;2022-12-29T04:02:50;52885.88;;;-144.47;70.61
64076;BME280;50327;51.328;12.324;2022-12-29T04:05:16;52885.88;;;-144.47;70.68
64076;BME280;50327;51.328;12.324;2022-12-29T04:07:41;52868.00;;;-144.47;70.91
64076;BME280;50327;51.328;12.324;2022-12-29T04:10:06;52870.00;;;-144.47;70.92
64076;BME280;50327;51.328;12.324;2022-12-29T04:12:32;52901.78;;;-144.47;71.01
64076;BME280;50327;51.328;12.324;2022-12-29T04:14:57;52905.75;;;-144.47;71.05
64076;BME280;50327;51.328;12.324;2022-12-29T04:17:22;52879.94;;;-144.47;71.18
64076;BME280;50327;51.328;12.324;2022-12-29T04:19:48;52864.03;;;-144.47;71.28
64076;BME280;50327;51.328;12.324;2022-12-29T04:22:13;52895.81;;;-144.47;71.15
64076;BME280;50327;51.328;12.324;2022-12-29T04:24:38;52891.84;;;-144.47;71.31
64076;BME280;50327;51.328;12.324;2022-12-29T04:27:04;52885.88;;;-144.47;71.51
64076;BME280;50327;51.328;12.324;2022-12-29T04:29:29;52881.91;;;-144.47;71.75
64076;BME280;50327;51.328;12.324;2022-12-29T04:31:54;52897.81;;;-144.47;71.98
64076;BME280;50327;51.328;12.324;2022-12-29T04:34:19;52868.00;;;-144.47;72.02
64076;BME280;50327;51.328;12.324;2022-12-29T04:36:45;52871.97;;;-144.47;71.92
64076;BME280;50327;51.328;12.324;2022-12-29T04:39:10;52870.00;;;-144.47;71.93
64076;BME280;50327;51.328;12.324;2022-12-29T04:41:35;52854.09;;;-144.47;71.95
64076;BME280;50327;51.328;12.324;2022-12-29T04:44:01;52891.84;;;-144.47;72.17
64076;BME280;50327;51.328;12.324;2022-12-29T04:46:26;52871.97;;;-144.47;72.45
64076;BME280;50327;51.328;12.324;2022-12-29T04:48:51;52893.81;;;-144.47;72.99
64076;BME280;50327;51.328;12.324;2022-12-29T04:51:16;52895.81;;;-144.47;73.18
64076;BME280;50327;51.328;12.324;2022-12-29T04:53:42;52868.00;;;-144.47;73.43
64076;BME280;50327;51.328;12.324;2022-12-29T04:56:07;52877.94;;;-144.47;73.42
64076;BME280;50327;51.328;12.324;2022-12-29T04:58:34;52881.91;;;-144.47;73.63
64076;BME280;50327;51.328;12.324;2022-12-29T05:00:59;52868.00;;;-144.47;73.93
64076;BME280;50327;51.328;12.324;2022-12-29T05:03:24;52903.75;;;-144.47;74.17
64076;BME280;50327;51.328;12.324;2022-12-29T05:05:52;52901.78;;;-144.47;74.51
64076;BME280;50327;51.328;12.324;2022-12-29T05:08:18;52881.91;;;-144.47;75.05
64076;BME280;50327;51.328;12.324;2022-12-29T05:10:46;52891.84;;;-144.47;75.66
64076;BME280;50327;51.328;12.324;2022-12-29T05:13:12;52881.91;;;-144.47;76.18
64076;BME280;50327;51.328;12.324;2022-12-29T05:15:37;52858.06;;;-144.47;76.41
64076;BME280;50327;51.328;12.324;2022-12-29T05:18:02;52873.97;;;-144.47;76.74
64076;BME280;50327;51.328;12.324;2022-12-29T05:20:27;52862.06;;;-144.47;77.20
64076;BME280;50327;51.328;12.324;2022-12-29T05:22:53;52905.75;;;-144.47;77.53
64076;BME280;50327;51.328;12.324;2022-12-29T05:25:18;52899.78;;;-144.47;77.92
64076;BME280;50327;51.328;12.324;2022-12-29T05:27:43;52907.72;;;-144.47;78.19
64076;BME280;50327;51.328;12.324;2022-12-29T05:30:09;52903.75;;;-144.47;78.47
64076;BME280;50327;51.328;12.324;2022-12-29T05:32:34;52891.84;;;-144.47;78.91
64076;BME280;50327;51.328;12.324;2022-12-29T05:35:00;52883.91;;;-144.47;78.92
64076;BME280;50327;51.328;12.324;2022-12-29T05:37:25;52899.78;;;-144.47;79.11
64076;BME280;50327;51.328;12.324;2022-12-29T05:39:50;52875.94;;;-144.47;79.16
64076;BME280;50327;51.328;12.324;2022-12-29T05:42:16;52905.75;;;-144.47;79.40
64076;BME280;50327;51.328;12.324;2022-12-29T05:44:41;52881.91;;;-144.47;79.38
64076;BME280;50327;51.328;12.324;2022-12-29T05:47:06;52903.75;;;-144.47;78.94
64076;BME280;50327;51.328;12.324;2022-12-29T05:49:31;52885.88;;;-144.47;78.87
64076;BME280;50327;51.328;12.324;2022-12-29T05:51:57;52889.84;;;-144.47;79.15
64076;BME280;50327;51.328;12.324;2022-12-29T05:54:22;52899.78;;;-144.47;79.48
64076;BME280;50327;51.328;12.324;2022-12-29T05:56:47;52889.84;;;-144.47;79.68
64076;BME280;50327;51.328;12.324;2022-12-29T05:59:12;52879.94;;;-144.47;79.58
64076;BME280;50327;51.328;12.324;2022-12-29T06:01:38;52897.81;;;-144.47;79.49
64076;BME280;50327;51.328;12.324;2022-12-29T06:04:03;52870.00;;;-144.47;79.65
64076;BME280;50327;51.328;12.324;2022-12-29T06:06:28;52891.84;;;-144.47;79.33
64076;BME280;50327;51.328;12.324;2022-12-29T06:08:54;52907.72;;;-144.47;79.27
64076;BME280;50327;51.328;12.324;2022-12-29T06:11:19;52899.78;;;-144.47;78.99
64076;BME280;50327;51.328;12.324;2022-12-29T06:13:44;52866.03;;;-144.47;78.71
64076;BME280;50327;51.328;12.324;2022-12-29T06:16:09;52899.78;;;-144.47;78.74
64076;BME280;50327;51.328;12.324;2022-12-29T06:18:35;52885.88;;;-144.47;78.52
64076;BME280;50327;51.328;12.324;2022-12-29T06:21:01;52875.94;;;-144.47;78.40
64076;BME280;50327;51.328;12.324;2022-12-29T06:23:26;52889.84;;;-144.47;78.12
64076;BME280;50327;51.328;12.324;2022-12-29T06:25:52;52860.06;;;-144.47;77.91
64076;BME280;50327;51.328;12.324;2022-12-29T06:28:17;52889.84;;;-144.47;77.66
64076;BME280;50327;51.328;12.324;2022-12-29T06:30:46;52875.94;;;-144.47;77.61
64076;BME280;50327;51.328;12.324;2022-12-29T06:33:11;52873.97;;;-144.47;77.55
64076;BME280;50327;51.328;12.324;2022-12-29T06:35:37;52871.97;;;-144.47;77.55
64076;BME280;50327;51.328;12.324;2022-12-29T06:38:02;52899.78;;;-144.47;77.35
64076;BME280;50327;51.328;12.324;2022-12-29T06:40:28;52889.84;;;-144.47;77.50
64076;BME280;50327;51.328;12.324;2022-12-29T06:42:53;52885.88;;;-144.47;77.54
64076;BME280;50327;51.328;12.324;2022-12-29T06:45:18;52868.00;;;-144.47;77.20
64076;BME280;50327;51.328;12.324;2022-12-29T06:47:44;52875.94;;;-144.47;77.67
64076;BME280;50327;51.328;12.324;2022-12-29T06:50:09;52868.00;;;-144.47;78.49
64076;BME280;50327;51.328;12.324;2022-12-29T06:52:34;52899.78;;;-144.47;78.62
64076;BME280;50327;51.328;12.324;2022-12-29T06:54:59;52895.81;;;-144.47;78.96
64076;BME280;50327;51.328;12.324;2022-12-29T06:57:24;52915.69;;;-144.47;79.59
64076;BME280;50327;51.328;12.324;2022-12-29T06:59:51;52885.88;;;-144.47;80.24
64076;BME280;50327;51.328;12.324;2022-12-29T07:02:16;52893.81;;;-144.47;80.98
64076;BME280;50327;51.328;12.324;2022-12-29T07:04:44;52931.56;;;-144.47;81.80
64076;BME280;50327;51.328;12.324;2022-12-29T07:07:09;52903.75;;;-144.47;82.25
64076;BME280;50327;51.328;12.324;2022-12-29T07:09:35;52881.91;;;-144.47;82.74
64076;BME280;50327;51.328;12.324;2022-12-29T07:12:00;52903.75;;;-144.47;84.45
64076;BME280;50327;51.328;12.324;2022-12-29T07:14:25;52891.84;;;-144.47;85.10
64076;BME280;50327;51.328;12.324;2022-12-29T07:16:50;52917.66;;;-144.47;85.05
64076;BME280;50327;51.328;12.324;2022-12-29T07:19:15;52893.81;;;-144.47;85.13
64076;BME280;50327;51.328;12.324;2022-12-29T07:21:41;52907.72;;;-144.47;85.10
64076;BME280;50327;51.328;12.324;2022-12-29T07:24:07;52911.69;;;-144.47;85.00
64076;BME280;50327;51.328;12.324;2022-12-29T07:26:32;52909.72;;;-144.47;84.79
64076;BME280;50327;51.328;12.324;2022-12-29T07:28:57;52931.56;;;-144.47;84.57
64076;BME280;50327;51.328;12.324;2022-12-29T07:31:22;52935.53;;;-144.47;84.50
64076;BME280;50327;51.328;12.324;2022-12-29T07:33:48;52889.84;;;-144.47;84.70
64076;BME280;50327;51.328;12.324;2022-12-29T07:36:14;52871.97;;;-144.47;85.00
64076;BME280;50327;51.328;12.324;2022-12-29T07:38:40;52927.59;;;-144.47;84.98
64076;BME280;50327;51.328;12.324;2022-12-29T07:41:05;52901.78;;;-144.47;84.58
64076;BME280;50327;51.328;12.324;2022-12-29T07:43:30;52893.81;;;-144.47;84.29
64076;BME280;50327;51.328;12.324;2022-12-29T07:45:56;52913.69;;;-144.47;83.84
64076;BME280;50327;51.328;12.324;2022-12-29T07:48:21;52885.88;;;-144.47;83.61
64076;BME280;50327;51.328;12.324;2022-12-29T07:50:46;52895.81;;;-144.47;83.39
64076;BME280;50327;51.328;12.324;2022-12-29T07:53:11;52917.66;;;-144.47;83.25
64076;BME280;50327;51.328;12.324;2022-12-29T07:55:37;52891.84;;;-144.47;83.66
64076;BME280;50327;51.328;12.324;2022-12-29T07:58:02;52901.78;;;-144.47;83.59
64076;BME280;50327;51.328;12.324;2022-12-29T08:00:27;52883.91;;;-144.47;83.43
64076;BME280;50327;51.328;12.324;2022-12-29T08:02:53;52907.72;;;-144.47;83.31
64076;BME280;50327;51.328;12.324;2022-12-29T08:05:18;52915.69;;;-144.47;82.89
64076;BME280;50327;51.328;12.324;2022-12-29T08:07:44;52907.72;;;-144.47;82.70
64076;BME280;50327;51.328;12.324;2022-12-29T08:10:09;52907.72;;;-144.47;82.40
64076;BME280;50327;51.328;12.324;2022-12-29T08:12:35;52864.03;;;-144.47;82.28
64076;BME280;50327;51.328;12.324;2022-12-29T08:15:00;52891.84;;;-144.47;81.92
64076;BME280;50327;51.328;12.324;2022-12-29T08:17:25;52889.84;;;-144.47;81.78
64076;BME280;50327;51.328;12.324;2022-12-29T08:19:50;52852.13;;;-144.47;81.55
64076;BME280;50327;51.328;12.324;2022-12-29T08:22:16;52901.78;;;-144.47;81.37
64076;BME280;50327;51.328;12.324;2022-12-29T08:24:41;52870.00;;;-144.47;81.20
64076;BME280;50327;51.328;12.324;2022-12-29T08:27:06;52887.88;;;-144.47;80.98
64076;BME280;50327;51.328;12.324;2022-12-29T08:29:31;52879.94;;;-144.47;80.81
64076;BME280;50327;51.328;12.324;2022-12-29T08:31:57;52864.03;;;-144.47;80.68
64076;BME280;50327;51.328;12.324;2022-12-29T08:34:22;52873.97;;;-144.47;80.67
64076;BME280;50327;51.328;12.324;2022-12-29T08:36:47;52881.91;;;-144.47;80.50
64076;BME280;50327;51.328;12.324;2022-12-29T08:39:12;52871.97;;;-144.47;80.39
64076;BME280;50327;51.328;12.324;2022-12-29T08:41:38;52883.91;;;-144.47;80.10
64076;BME280;50327;51.328;12.324;2022-12-29T08:44:04;52877.94;;;-144.47;79.95
64076;BME280;50327;51.328;12.324;2022-12-29T08:46:29;52877.94;;;-144.47;79.73
64076;BME280;50327;51.328;12.324;2022-12-29T08:48:54;52875.94;;;-144.47;79.36
64076;BME280;50327;51.328;12.324;2022-12-29T08:51:19;52856.09;;;-144.47;78.66
64076;BME280;50327;51.328;12.324;2022-12-29T08:53:45;52856.09;;;-144.47;78.29
64076;BME280;50327;51.328;12.324;2022-12-29T08:56:10;52858.06;;;-144.47;77.88
64076;BME280;50327;51.328;12.324;2022-12-29T08:58:36;52905.75;;;-144.47;77.45
64076;BME280;50327;51.328;12.324;2022-12-29T09:01:02;52868.00;;;-144.47;77.33
64076;BME280;50327;51.328;12.324;2022-12-29T09:03:27;52873.97;;;-144.47;77.40
64076;BME280;50327;51.328;12.324;2022-12-29T09:05:53;52885.88;;;-144.47;77.74
64076;BME280;50327;51.328;12.324;2022-12-29T09:08:18;52848.16;;;-144.47;78.01
64076;BME280;50327;51.328;12.324;2022-12-29T09:10:44;52866.03;;;-144.47;77.88
64076;BME280;50327;51.328;12.324;2022-12-29T09:13:10;52862.06;;;-144.47;77.37
64076;BME280;50327;51.328;12.324;2022-12-29T09:15:36;52897.81;;;-144.47;77.08
64076;BME280;50327;51.328;12.324;2022-12-29T09:18:01;52860.06;;;-144.47;76.72
64076;BME280;50327;51.328;12.324;2022-12-29T09:20:26;52875.94;;;-144.47;76.47
64076;BME280;50327;51.328;12.324;2022-12-29T09:22:52;52866.03;;;-144.47;76.16
64076;BME280;50327;51.328;12.324;2022-12-29T09:25:17;52860.06;;;-144.47;75.97
64076;BME280;50327;51.328;12.324;2022-12-29T09:27:42;52860.06;;;-144.47;75.36
64076;BME280;50327;51.328;12.324;2022-12-29T09:30:08;52852.13;;;-144.47;74.66
64076;BME280;50327;51.328;12.324;2022-12-29T09:32:35;52842.19;;;-144.47;74.54
64076;BME280;50327;51.328;12.324;2022-12-29T09:35:00;52850.13;;;-144.47;73.82
64076;BME280;50327;51.328;12.324;2022-12-29T09:37:26;52848.16;;;-144.47;73.45
64076;BME280;50327;51.328;12.324;2022-12-29T09:39:51;52862.06;;;-144.47;73.40
64076;BME280;50327;51.328;12.324;2022-12-29T09:47:28;52860.06;;;-144.47;71.10
64076;BME280;50327;51.328;12.324;2022-12-29T09:49:55;52846.16;;;-144.47;70.66
64076;BME280;50327;51.328;12.324;2022-12-29T09:57:14;52822.31;;;-144.47;70.15
64076;BME280;50327;51.328;12.324;2022-12-29T09:59:41;52862.06;;;-144.47;70.44
64076;BME280;50327;51.328;12.324;2022-12-29T10:02:29;52842.19;;;-144.47;70.59
64076;BME280;50327;51.328;12.324;2022-12-29T10:04:55;52846.16;;;-144.47;70.38
64076;BME280;50327;51.328;12.324;2022-12-29T10:07:36;52834.25;;;-144.47;70.33
64076;BME280;50327;51.328;12.324;2022-12-29T10:15:12;52840.19;;;-144.47;70.37
64076;BME280;50327;51.328;12.324;2022-12-29T10:22:55;52846.16;;;-144.47;70.13
64076;BME280;50327;51.328;12.324;2022-12-29T10:25:26;52832.25;;;-144.47;70.14
64076;BME280;50327;51.328;12.324;2022-12-29T10:27:54;52840.19;;;-144.47;70.22
64076;BME280;50327;51.328;12.324;2022-12-29T10:30:21;52854.09;;;-144.47;70.24
64076;BME280;50327;51.328;12.324;2022-12-29T10:35:18;52830.28;;;-144.47;69.99
64076;BME280;50327;51.328;12.324;2022-12-29T10:38:05;52846.16;;;-144.47;69.99
64076;BME280;50327;51.328;12.324;2022-12-29T10:40:42;52836.22;;;-144.47;69.54
64076;BME280;50327;51.328;12.324;2022-12-29T10:43:27;52836.22;;;-144.47;69.52
64076;BME280;50327;51.328;12.324;2022-12-29T10:45:54;52852.13;;;-144.47;68.90
64076;BME280;50327;51.328;12.324;2022-12-29T10:48:22;52820.34;;;-144.47;68.78
64076;BME280;50327;51.328;12.324;2022-12-29T10:50:49;52842.19;;;-144.47;68.55
64076;BME280;50327;51.328;12.324;2022-12-29T10:53:22;52830.28;;;-144.47;68.25
64076;BME280;50327;51.328;12.324;2022-12-29T10:55:48;52812.41;;;-144.47;67.98
64076;BME280;50327;51.328;12.324;2022-12-29T10:58:14;52838.22;;;-144.47;67.61
64076;BME280;50327;51.328;12.324;2022-12-29T11:00:39;52842.19;;;-144.47;66.77
64076;BME280;50327;51.328;12.324;2022-12-29T11:05:33;52796.50;;;-144.47;65.45
64076;BME280;50327;51.328;12.324;2022-12-29T11:08:05;52820.34;;;-144.47;64.84
64076;BME280;50327;51.328;12.324;2022-12-29T11:13:01;52802.47;;;-144.47;63.83
64076;BME280;50327;51.328;12.324;2022-12-29T11:15:26;52804.44;;;-144.47;63.88
64076;BME280;50327;51.328;12.324;2022-12-29T11:17:58;52804.44;;;-144.47;63.88
64076;BME280;50327;51.328;12.324;2022-12-29T11:22:53;52844.19;;;-144.47;64.27
64076;BME280;50327;51.328;12.324;2022-12-29T11:25:18;52818.34;;;-144.47;64.44
64076;BME280;50327;51.328;12.324;2022-12-29T11:27:54;52834.25;;;-144.47;64.45
64076;BME280;50327;51.328;12.324;2022-12-29T11:30:26;52820.34;;;-144.47;64.50
64076;BME280;50327;51.328;12.324;2022-12-29T11:32:53;52806.44;;;-144.47;64.59
64076;BME280;50327;51.328;12.324;2022-12-29T11:35:31;52818.34;;;-144.47;64.77
64076;BME280;50327;51.328;12.324;2022-12-29T11:37:57;52830.28;;;-144.47;65.34
64076;BME280;50327;51.328;12.324;2022-12-29T11:40:23;52816.38;;;-144.47;65.46
64076;BME280;50327;51.328;12.324;2022-12-29T11:45:56;52830.28;;;-144.47;65.96
64076;BME280;50327;51.328;12.324;2022-12-29T11:48:17;52804.44;;;-144.47;65.50
64076;BME280;50327;51.328;12.324;2022-12-29T11:50:43;52816.38;;;-144.47;65.67
64076;BME280;50327;51.328;12.324;2022-12-29T11:53:19;52828.28;;;-144.47;65.64
64076;BME280;50327;51.328;12.324;2022-12-29T11:55:58;52830.28;;;-144.47;65.57
64076;BME280;50327;51.328;12.324;2022-12-29T11:58:28;52810.41;;;-144.47;65.91
64076;BME280;50327;51.328;12.324;2022-12-29T12:00:53;52802.47;;;-144.47;66.01
64076;BME280;50327;51.328;12.324;2022-12-29T12:03:25;52814.38;;;-144.47;65.90
64076;BME280;50327;51.328;12.324;2022-12-29T12:05:56;52804.44;;;-144.47;65.49
64076;BME280;50327;51.328;12.324;2022-12-29T12:11:20;52816.38;;;-144.47;64.30
64076;BME280;50327;51.328;12.324;2022-12-29T12:16:17;52786.56;;;-144.47;63.19
64076;BME280;50327;51.328;12.324;2022-12-29T12:26:53;52814.38;;;-144.47;62.82
64076;BME280;50327;51.328;12.324;2022-12-29T12:29:22;52812.41;;;-144.47;62.43
64076;BME280;50327;51.328;12.324;2022-12-29T12:31:51;52842.19;;;-144.47;63.17
64076;BME280;50327;51.328;12.324;2022-12-29T12:34:20;52816.38;;;-144.47;63.40
64076;BME280;50327;51.328;12.324;2022-12-29T12:36:51;52818.34;;;-144.47;63.45
64076;BME280;50327;51.328;12.324;2022-12-29T12:44:29;52836.22;;;-144.47;64.67
64076;BME280;50327;51.328;12.324;2022-12-29T12:49:54;52824.31;;;-144.47;65.34
64076;BME280;50327;51.328;12.324;2022-12-29T12:52:30;52824.31;;;-144.47;65.22
64076;BME280;50327;51.328;12.324;2022-12-29T12:57:34;52848.16;;;-144.47;65.04
64076;BME280;50327;51.328;12.324;2022-12-29T13:00:12;52820.34;;;-144.47;65.16
64076;BME280;50327;51.328;12.324;2022-12-29T13:10:26;52798.50;;;-144.47;65.62
64076;BME280;50327;51.328;12.324;2022-12-29T13:13:02;52824.31;;;-144.47;65.28
64076;BME280;50327;51.328;12.324;2022-12-29T13:20:56;52810.41;;;-144.47;64.71
64076;BME280;50327;51.328;12.324;2022-12-29T13:26:20;52798.50;;;-144.47;64.92
64076;BME280;50327;51.328;12.324;2022-12-29T13:31:33;52844.19;;;-144.47;64.42
64076;BME280;50327;51.328;12.324;2022-12-29T13:34:17;52826.31;;;-144.47;64.38
64076;BME280;50327;51.328;12.324;2022-12-29T13:36:48;52820.34;;;-144.47;64.52
64076;BME280;50327;51.328;12.324;2022-12-29T13:39:25;52818.34;;;-144.47;64.57
64076;BME280;50327;51.328;12.324;2022-12-29T13:41:52;52800.47;;;-144.47;65.39
64076;BME280;50327;51.328;12.324;2022-12-29T13:44:22;52816.38;;;-144.47;66.32
64076;BME280;50327;51.328;12.324;2022-12-29T13:46:48;52802.47;;;-144.47;67.24
64076;BME280;50327;51.328;12.324;2022-12-29T13:49:18;52796.50;;;-144.47;67.00
64076;BME280;50327;51.328;12.324;2022-12-29T13:51:47;52820.34;;;-144.47;66.20
64076;BME280;50327;51.328;12.324;2022-12-29T14:01:53;52808.44;;;-144.47;66.77
64076;BME280;50327;51.328;12.324;2022-12-29T14:04:22;52826.31;;;-144.47;67.47
64076;BME280;50327;51.328;12.324;2022-12-29T14:07:35;52820.34;;;-144.47;67.89
64076;BME280;50327;51.328;12.324;2022-12-29T14:09:44;52862.06;;;-144.47;68.07
64076;BME280;50327;51.328;12.324;2022-12-29T14:14:48;52832.25;;;-144.47;68.71
64076;BME280;50327;51.328;12.324;2022-12-29T14:17:16;52836.22;;;-144.47;69.02
64076;BME280;50327;51.328;12.324;2022-12-29T14:19:43;52852.13;;;-144.47;69.00
64076;BME280;50327;51.328;12.324;2022-12-29T14:22:09;52830.28;;;-144.47;69.24
64076;BME280;50327;51.328;12.324;2022-12-29T14:29:49;52796.50;;;-144.47;69.68
64076;BME280;50327;51.328;12.324;2022-12-29T14:34:49;52830.28;;;-144.47;69.55
64076;BME280;50327;51.328;12.324;2022-12-29T14:37:28;52844.19;;;-144.47;69.69
64076;BME280;50327;51.328;12.324;2022-12-29T14:40:04;52844.19;;;-144.47;69.77
64076;BME280;50327;51.328;12.324;2022-12-29T14:42:30;52854.09;;;-144.47;69.90
64076;BME280;50327;51.328;12.324;2022-12-29T14:45:06;52875.94;;;-144.47;69.68
64076;BME280;50327;51.328;12.324;2022-12-29T14:50:05;52856.09;;;-144.47;69.42
64076;BME280;50327;51.328;12.324;2022-12-29T14:52:31;52828.28;;;-144.47;68.90
64076;BME280;50327;51.328;12.324;2022-12-29T14:54:58;52850.13;;;-144.47;68.76